Time;durP1;ratioP1;P1;durP2;ratioP2;P2;SDS_P1;SDS_P2;PMS_P1;PMS_P2;Temp;Humidity;BMP_temperature;BMP_pressure;BME280_temperature;BME280_humidity;BME280_pressure;Samples;Min_cycle;Max_cycle;Signal;HPM_P1;HPM_P2
2023/12/03 00:01:50;;;;;;;;;54.00;41.25;;;;;;;;5017670;28;45445;-68
2023/12/03 00:04:15;;;;;;;;;42.50;41.50;;;;;;;;5020553;28;45431;-67
2023/12/03 00:06:40;;;;;;;;;44.33;35.67;;;;;;;;5010008;28;46536;-68
2023/12/03 00:09:06;;;;;;;;;46.25;42.50;;;;;;;;5024277;28;45402;-68
2023/12/03 00:11:31;;;;;;;;;54.00;40.75;;;;;;;;5027097;28;45296;-68
2023/12/03 00:13:56;;;;;;;;;47.67;38.67;;;;;;;;5010846;28;45610;-69
2023/12/03 00:16:21;;;;;;;;;47.50;39.75;;;;;;;;5017279;28;45780;-67
2023/12/03 00:18:47;;;;;;;;;38.33;32.00;;;;;;;;5021779;28;45649;-68
2023/12/03 00:21:12;;;;;;;;;54.00;37.50;;;;;;;;5018728;28;45371;-69
2023/12/03 00:23:37;;;;;;;;;44.25;33.25;;;;;;;;5009332;28;45519;-68
2023/12/03 00:26:03;;;;;;;;;53.00;35.00;;;;;;;;5026420;28;46673;-68
2023/12/03 00:28:28;;;;;;;;;60.25;43.00;;;;;;;;5007055;28;45482;-67
2023/12/03 00:30:53;;;;;;;;;44.33;33.00;;;;;;;;5027145;28;45347;-68
2023/12/03 00:33:18;;;;;;;;;53.00;37.33;;;;;;;;5028242;28;45912;-68
2023/12/03 00:35:43;;;;;;;;;39.67;31.33;;;;;;;;5019749;28;46444;-68
2023/12/03 00:38:08;;;;;;;;;51.00;38.67;;;;;;;;5029791;28;45487;-71
2023/12/03 00:40:34;;;;;;;;;50.00;41.67;;;;;;;;5028276;28;45480;-67
2023/12/03 00:42:59;;;;;;;;;41.00;31.33;;;;;;;;5018542;28;45646;-69
2023/12/03 00:45:24;;;;;;;;;49.33;34.00;;;;;;;;5018985;28;46780;-68
2023/12/03 00:47:49;;;;;;;;;44.33;31.67;;;;;;;;5006118;28;45692;-68
2023/12/03 00:50:16;;;;;;;;;44.75;23.75;;;;;;;;5015225;28;45404;-71
2023/12/03 00:52:41;;;;;;;;;38.00;27.00;;;;;;;;5022594;28;45492;-68
2023/12/03 00:55:07;;;;;;;;;30.00;26.00;;;;;;;;5022597;28;45866;-68
2023/12/03 00:57:32;;;;;;;;;40.00;26.75;;;;;;;;5023360;28;45436;-68
2023/12/03 00:59:57;;;;;;;;;36.75;21.75;;;;;;;;5024959;28;45451;-70
2023/12/03 01:02:22;;;;;;;;;38.67;28.67;;;;;;;;5018856;28;45634;-68
2023/12/03 01:04:47;;;;;;;;;32.33;20.67;;;;;;;;5026906;28;46036;-68
2023/12/03 01:07:13;;;;;;;;;30.00;25.33;;;;;;;;5027408;28;45411;-68
2023/12/03 01:09:38;;;;;;;;;28.00;25.00;;;;;;;;5025898;28;45360;-69
2023/12/03 01:12:03;;;;;;;;;29.00;24.67;;;;;;;;5011616;28;45483;-67
2023/12/03 01:14:29;;;;;;;;;30.25;25.25;;;;;;;;5009707;28;45546;-67
2023/12/03 01:16:54;;;;;;;;;29.25;24.25;;;;;;;;5018727;28;45487;-69
2023/12/03 01:19:19;;;;;;;;;45.25;29.75;;;;;;;;5022036;28;45396;-69
2023/12/03 01:21:44;;;;;;;;;36.00;25.33;;;;;;;;5026141;28;45616;-69
2023/12/03 01:24:09;;;;;;;;;33.33;23.00;;;;;;;;5021261;28;46635;-68
2023/12/03 01:26:34;;;;;;;;;37.33;28.33;;;;;;;;5020516;28;45425;-70
2023/12/03 01:29:00;;;;;;;;;31.00;24.00;;;;;;;;5007113;28;45436;-70
2023/12/03 01:31:25;;;;;;;;;31.33;18.33;;;;;;;;5015505;28;45441;-70
2023/12/03 01:33:50;;;;;;;;;28.00;22.67;;;;;;;;4994406;28;48845;-70
2023/12/03 01:36:15;;;;;;;;;30.00;27.00;;;;;;;;5027375;28;45590;-70
2023/12/03 01:38:41;;;;;;;;;30.75;19.25;;;;;;;;5022645;28;45273;-68
2023/12/03 01:41:06;;;;;;;;;31.67;23.00;;;;;;;;5021747;28;45436;-68
2023/12/03 01:43:31;;;;;;;;;29.75;21.00;;;;;;;;5023628;28;46211;-68
2023/12/03 01:45:57;;;;;;;;;30.67;25.33;;;;;;;;5020752;28;45201;-68
2023/12/03 01:48:22;;;;;;;;;25.50;22.75;;;;;;;;5029919;28;45435;-68
2023/12/03 01:50:47;;;;;;;;;31.00;20.00;;;;;;;;5020058;28;45511;-70
2023/12/03 01:53:14;;;;;;;;;33.75;26.25;;;;;;;;5018611;28;46547;-66
2023/12/03 01:55:40;;;;;;;;;36.25;23.50;;;;;;;;5024108;28;45506;-69
2023/12/03 01:58:05;;;;;;;;;29.25;25.25;;;;;;;;5010782;28;45483;-68
2023/12/03 02:00:32;;;;;;;;;42.50;25.00;;;;;;;;5015404;28;45466;-68
2023/12/03 02:02:57;;;;;;;;;30.50;23.25;;;;;;;;5011774;28;46172;-69
2023/12/03 02:05:23;;;;;;;;;41.00;31.50;;;;;;;;5016821;28;45381;-68
2023/12/03 02:07:48;;;;;;;;;34.25;22.75;;;;;;;;5019775;28;45444;-67
2023/12/03 02:10:13;;;;;;;;;28.33;27.00;;;;;;;;5008360;28;45459;-67
2023/12/03 02:12:38;;;;;;;;;26.50;23.50;;;;;;;;5019360;28;46361;-69
2023/12/03 02:15:04;;;;;;;;;45.50;25.75;;;;;;;;5012370;28;46531;-68
2023/12/03 02:17:29;;;;;;;;;29.75;23.00;;;;;;;;5022883;28;45682;-68
2023/12/03 02:19:54;;;;;;;;;34.00;25.00;;;;;;;;5019570;28;45610;-68
2023/12/03 02:22:19;;;;;;;;;27.50;22.00;;;;;;;;5017309;28;45662;-68
2023/12/03 02:24:44;;;;;;;;;35.33;24.67;;;;;;;;5018545;28;45163;-68
2023/12/03 02:27:10;;;;;;;;;43.00;28.33;;;;;;;;5006435;28;45436;-67
2023/12/03 02:29:35;;;;;;;;;41.67;28.67;;;;;;;;5016386;28;46868;-70
2023/12/03 02:32:00;;;;;;;;;25.33;21.67;;;;;;;;5027123;28;45426;-68
2023/12/03 02:34:25;;;;;;;;;46.00;32.67;;;;;;;;5007697;28;45436;-68
2023/12/03 02:36:53;;;;;;;;;32.50;22.00;;;;;;;;5025124;28;45580;-67
2023/12/03 02:39:18;;;;;;;;;33.75;19.50;;;;;;;;5021801;28;45426;-69
2023/12/03 02:41:43;;;;;;;;;25.33;21.33;;;;;;;;5024534;28;46641;-68
2023/12/03 02:44:10;;;;;;;;;37.67;25.00;;;;;;;;5002535;28;45484;-67
2023/12/03 02:46:35;;;;;;;;;32.75;23.00;;;;;;;;5019039;28;45532;-69
2023/12/03 02:49:00;;;;;;;;;28.33;22.33;;;;;;;;5004511;28;45301;-68
2023/12/03 02:51:25;;;;;;;;;28.00;19.67;;;;;;;;5018547;28;46808;-68
2023/12/03 02:53:51;;;;;;;;;34.00;24.33;;;;;;;;5018636;28;45968;-67
2023/12/03 02:56:17;;;;;;;;;27.00;23.25;;;;;;;;5019838;28;45362;-68
2023/12/03 02:58:42;;;;;;;;;24.75;17.50;;;;;;;;5019612;28;45368;-68
2023/12/03 03:01:08;;;;;;;;;34.25;23.50;;;;;;;;5008761;28;45934;-68
2023/12/03 03:03:33;;;;;;;;;25.75;23.00;;;;;;;;5015287;28;45512;-68
2023/12/03 03:05:59;;;;;;;;;26.50;18.00;;;;;;;;5009073;28;45290;-68
2023/12/03 03:08:24;;;;;;;;;25.33;23.67;;;;;;;;5020009;28;45531;-69
2023/12/03 03:10:49;;;;;;;;;33.67;22.00;;;;;;;;5010076;28;46580;-71
2023/12/03 03:13:14;;;;;;;;;28.00;19.00;;;;;;;;5017933;28;45368;-68
2023/12/03 03:15:39;;;;;;;;;26.67;20.67;;;;;;;;5019416;28;45439;-71
2023/12/03 03:18:05;;;;;;;;;31.50;21.25;;;;;;;;5021034;28;45592;-68
2023/12/03 03:20:30;;;;;;;;;18.00;14.25;;;;;;;;4999635;28;47767;-67
2023/12/03 03:22:55;;;;;;;;;26.25;19.25;;;;;;;;5010243;28;47029;-68
2023/12/03 03:25:20;;;;;;;;;27.33;18.00;;;;;;;;5017836;28;45620;-72
2023/12/03 03:27:45;;;;;;;;;33.00;21.00;;;;;;;;5018018;28;45278;-69
2023/12/03 03:30:11;;;;;;;;;22.50;18.50;;;;;;;;5017705;28;46534;-68
2023/12/03 03:32:36;;;;;;;;;29.00;15.50;;;;;;;;5023722;28;45382;-69
2023/12/03 03:35:04;;;;;;;;;23.67;20.67;;;;;;;;5011108;28;45487;-69
2023/12/03 03:37:30;;;;;;;;;14.25;13.50;;;;;;;;5017776;28;45423;-68
2023/12/03 03:39:55;;;;;;;;;16.00;16.00;;;;;;;;5017544;28;47500;-68
2023/12/03 03:42:20;;;;;;;;;17.67;15.33;;;;;;;;5027397;28;45276;-67
2023/12/03 03:44:46;;;;;;;;;31.00;23.00;;;;;;;;5018104;28;45349;-68
2023/12/03 03:47:14;;;;;;;;;32.75;25.75;;;;;;;;5017177;28;45784;-68
2023/12/03 03:49:40;;;;;;;;;34.25;21.75;;;;;;;;5014135;28;47806;-68
2023/12/03 03:52:05;;;;;;;;;32.00;21.25;;;;;;;;5017545;28;45327;-68
2023/12/03 03:54:30;;;;;;;;;20.25;14.50;;;;;;;;5017797;28;45325;-70
2023/12/03 03:56:56;;;;;;;;;34.75;21.50;;;;;;;;5018931;28;45516;-68
2023/12/03 03:59:21;;;;;;;;;33.67;23.67;;;;;;;;5024336;28;46465;-68
2023/12/03 04:01:46;;;;;;;;;30.75;25.25;;;;;;;;5020541;28;45404;-69
2023/12/03 04:04:12;;;;;;;;;22.67;17.33;;;;;;;;5021722;28;45583;-69
2023/12/03 04:06:46;;;;;;;;;27.50;14.75;;;;;;;;5023770;28;45534;-67
2023/12/03 04:09:12;;;;;;;;;28.00;22.25;;;;;;;;5010989;28;48435;-70
2023/12/03 04:11:39;;;;;;;;;31.75;22.00;;;;;;;;5031000;28;45402;-68
2023/12/03 04:14:05;;;;;;;;;27.00;21.50;;;;;;;;5024049;28;45345;-68
2023/12/03 04:16:30;;;;;;;;;25.25;21.75;;;;;;;;5011696;28;45404;-69
2023/12/03 04:18:56;;;;;;;;;25.50;22.00;;;;;;;;5018819;28;46449;-69
2023/12/03 04:21:21;;;;;;;;;24.67;21.00;;;;;;;;5019721;28;45324;-69
2023/12/03 04:23:46;;;;;;;;;23.25;19.75;;;;;;;;5017003;28;45884;-70
2023/12/03 04:26:12;;;;;;;;;22.33;22.33;;;;;;;;5019935;28;45416;-69
2023/12/03 04:28:41;;;;;;;;;28.75;21.75;;;;;;;;5022272;28;46480;-70
2023/12/03 04:31:14;;;;;;;;;24.25;21.25;;;;;;;;5020773;28;45429;-68
2023/12/03 04:33:40;;;;;;;;;25.75;20.25;;;;;;;;5019025;28;45502;-68
2023/12/03 04:36:07;;;;;;;;;23.00;19.25;;;;;;;;5017393;28;45420;-68
2023/12/03 04:38:32;;;;;;;;;30.25;24.75;;;;;;;;5032276;28;45857;-70
2023/12/03 04:40:57;;;;;;;;;29.33;24.67;;;;;;;;5003852;28;45469;-68
2023/12/03 04:43:22;;;;;;;;;21.67;21.67;;;;;;;;5021948;28;45412;-69
2023/12/03 04:45:48;;;;;;;;;25.33;22.00;;;;;;;;5021640;28;45690;-68
2023/12/03 04:48:13;;;;;;;;;24.33;19.33;;;;;;;;5017760;28;46198;-69
2023/12/03 04:50:38;;;;;;;;;29.33;18.67;;;;;;;;5017868;28;45317;-68
2023/12/03 04:53:03;;;;;;;;;28.33;24.67;;;;;;;;5015978;28;45400;-68
2023/12/03 04:55:28;;;;;;;;;28.00;20.33;;;;;;;;5020398;28;45535;-66
2023/12/03 04:57:53;;;;;;;;;27.33;19.33;;;;;;;;5018175;28;45497;-68
2023/12/03 05:00:19;;;;;;;;;28.33;21.00;;;;;;;;5017918;28;45325;-69
2023/12/03 05:02:44;;;;;;;;;24.25;18.75;;;;;;;;5015391;28;45350;-71
2023/12/03 05:05:09;;;;;;;;;23.00;23.00;;;;;;;;5028209;28;45574;-68
2023/12/03 05:07:34;;;;;;;;;37.00;28.00;;;;;;;;5013644;28;45627;-69
2023/12/03 05:09:59;;;;;;;;;32.25;21.50;;;;;;;;5004725;28;45405;-68
2023/12/03 05:12:25;;;;;;;;;31.75;25.75;;;;;;;;5029652;28;45421;-69
2023/12/03 05:14:50;;;;;;;;;23.75;19.75;;;;;;;;5008797;28;45495;-68
2023/12/03 05:17:15;;;;;;;;;32.67;20.67;;;;;;;;5010796;28;45458;-67
2023/12/03 05:19:41;;;;;;;;;25.00;21.25;;;;;;;;5011243;28;45438;-70
2023/12/03 05:22:06;;;;;;;;;28.75;23.75;;;;;;;;5019782;28;45336;-67
2023/12/03 05:24:32;;;;;;;;;24.67;22.67;;;;;;;;5021045;28;45490;-68
2023/12/03 05:26:57;;;;;;;;;26.75;18.25;;;;;;;;5021290;28;46449;-68
2023/12/03 05:29:22;;;;;;;;;33.33;21.33;;;;;;;;5020505;28;45499;-67
2023/12/03 05:31:47;;;;;;;;;36.67;26.33;;;;;;;;5023864;28;45716;-68
2023/12/03 05:34:12;;;;;;;;;29.67;21.33;;;;;;;;5014911;28;45459;-70
2023/12/03 05:36:38;;;;;;;;;37.67;27.67;;;;;;;;5019827;28;46575;-68
2023/12/03 05:39:04;;;;;;;;;37.50;26.75;;;;;;;;5021772;28;45405;-68
2023/12/03 05:41:29;;;;;;;;;35.75;23.00;;;;;;;;5030555;28;45325;-68
2023/12/03 05:43:54;;;;;;;;;36.33;29.00;;;;;;;;5021882;28;45506;-68
2023/12/03 05:46:19;;;;;;;;;24.67;23.00;;;;;;;;5030189;28;46538;-68
2023/12/03 05:48:44;;;;;;;;;33.33;26.33;;;;;;;;5018080;28;45343;-68
2023/12/03 05:51:10;;;;;;;;;35.00;25.00;;;;;;;;5026913;28;45531;-68
2023/12/03 05:53:35;;;;;;;;;38.25;25.00;;;;;;;;5029869;28;45263;-69
2023/12/03 05:56:00;;;;;;;;;31.33;23.33;;;;;;;;5034551;28;45923;-68
2023/12/03 05:58:25;;;;;;;;;35.67;28.33;;;;;;;;5023826;28;45363;-70
2023/12/03 06:00:51;;;;;;;;;35.00;25.00;;;;;;;;5062289;22;45435;-71
2023/12/03 06:03:16;;;;;;;;;40.00;29.67;;;;;;;;5082599;28;45651;-68
2023/12/03 06:05:41;;;;;;;;;40.00;31.67;;;;;;;;5084151;27;46097;-70
2023/12/03 06:08:06;;;;;;;;;38.00;30.50;;;;;;;;5081910;28;45538;-68
2023/12/03 06:10:31;;;;;;;;;40.33;28.33;;;;;;;;5086761;27;45382;-68
2023/12/03 06:12:57;;;;;;;;;39.00;31.33;;;;;;;;5086385;27;45603;-71
2023/12/03 06:15:22;;;;;;;;;33.33;32.00;;;;;;;;5082254;27;45645;-67
2023/12/03 06:17:47;;;;;;;;;46.00;32.33;;;;;;;;5076237;27;45347;-66
2023/12/03 06:20:12;;;;;;;;;39.00;28.67;;;;;;;;5084940;27;45343;-69
2023/12/03 06:22:37;;;;;;;;;52.67;35.67;;;;;;;;5086847;27;45550;-68
2023/12/03 06:25:03;;;;;;;;;33.00;28.33;;;;;;;;5086745;27;46426;-68
2023/12/03 06:27:28;;;;;;;;;47.50;27.25;;;;;;;;5084569;27;45339;-68
2023/12/03 06:29:53;;;;;;;;;43.50;35.00;;;;;;;;5087845;27;45368;-69
2023/12/03 06:32:18;;;;;;;;;41.67;30.33;;;;;;;;5083674;27;45820;-68
2023/12/03 06:34:43;;;;;;;;;32.67;23.33;;;;;;;;5063708;28;47440;-69
2023/12/03 06:37:09;;;;;;;;;51.67;32.67;;;;;;;;5092725;27;45471;-68
2023/12/03 06:39:34;;;;;;;;;37.50;33.00;;;;;;;;5095684;27;45264;-69
2023/12/03 06:41:59;;;;;;;;;38.67;32.00;;;;;;;;5064535;28;45705;-68
2023/12/03 06:44:25;;;;;;;;;28.00;24.67;;;;;;;;5083685;27;46297;-68
2023/12/03 06:46:50;;;;;;;;;31.50;26.50;;;;;;;;5085899;27;45172;-69
2023/12/03 06:49:15;;;;;;;;;30.75;23.75;;;;;;;;5083741;27;45486;-69
2023/12/03 06:51:40;;;;;;;;;44.00;33.00;;;;;;;;5081447;28;46817;-69
2023/12/03 06:54:06;;;;;;;;;27.00;22.67;;;;;;;;5089459;27;45613;-70
2023/12/03 06:56:32;;;;;;;;;35.50;26.00;;;;;;;;5085130;27;45349;-69
2023/12/03 06:58:57;;;;;;;;;33.67;23.33;;;;;;;;5084590;27;45627;-69
2023/12/03 07:01:22;;;;;;;;;43.00;28.67;;;;;;;;5068303;28;45476;-70
2023/12/03 07:03:47;;;;;;;;;29.50;21.75;;;;;;;;5077574;28;45509;-71
2023/12/03 07:06:12;;;;;;;;;37.00;29.67;;;;;;;;5077383;28;45448;-68
2023/12/03 07:08:38;;;;;;;;;34.50;25.25;;;;;;;;5079773;27;45509;-68
2023/12/03 07:11:03;;;;;;;;;34.33;26.00;;;;;;;;5096949;27;45274;-68
2023/12/03 07:13:28;;;;;;;;;43.00;26.00;;;;;;;;5077892;27;45414;-68
2023/12/03 07:15:53;;;;;;;;;30.00;28.33;;;;;;;;5078769;27;45540;-68
2023/12/03 07:18:18;;;;;;;;;33.00;24.33;;;;;;;;5078102;28;45441;-68
2023/12/03 07:20:43;;;;;;;;;33.33;28.00;;;;;;;;5065871;28;45598;-68
2023/12/03 07:23:09;;;;;;;;;31.50;24.25;;;;;;;;5071115;28;45668;-68
2023/12/03 07:25:34;;;;;;;;;32.75;24.25;;;;;;;;5077107;28;45507;-70
2023/12/03 07:27:59;;;;;;;;;26.50;22.75;;;;;;;;5076166;28;45427;-70
2023/12/03 07:30:25;;;;;;;;;32.00;25.00;;;;;;;;5078264;28;45577;-68
2023/12/03 07:32:50;;;;;;;;;25.00;20.50;;;;;;;;5076953;28;45948;-68
2023/12/03 07:35:16;;;;;;;;;38.25;25.75;;;;;;;;5077915;28;45407;-69
2023/12/03 07:37:41;;;;;;;;;30.00;22.75;;;;;;;;5074705;28;45569;-70
2023/12/03 07:40:08;;;;;;;;;25.50;19.75;;;;;;;;5078183;28;45664;-69
2023/12/03 07:42:33;;;;;;;;;31.50;21.25;;;;;;;;5077506;28;45820;-71
2023/12/03 07:44:58;;;;;;;;;28.67;20.00;;;;;;;;5077560;28;45420;-71
2023/12/03 07:47:23;;;;;;;;;27.00;19.00;;;;;;;;5076438;28;45402;-69
2023/12/03 07:49:49;;;;;;;;;32.33;19.67;;;;;;;;5074778;28;45498;-72
2023/12/03 07:52:14;;;;;;;;;30.33;23.67;;;;;;;;5077561;28;46558;-69
2023/12/03 07:54:40;;;;;;;;;32.33;20.67;;;;;;;;5077654;28;45226;-70
2023/12/03 07:57:06;;;;;;;;;34.00;23.25;;;;;;;;5072317;28;45341;-70
2023/12/03 07:59:31;;;;;;;;;32.67;22.00;;;;;;;;5067935;28;45439;-69
2023/12/03 08:01:58;;;;;;;;;34.00;23.00;;;;;;;;5072135;28;46450;-70
2023/12/03 08:04:24;;;;;;;;;26.50;21.25;;;;;;;;5076248;28;45512;-71
2023/12/03 08:06:50;;;;;;;;;38.00;24.00;;;;;;;;5076877;28;45370;-70
2023/12/03 08:09:15;;;;;;;;;30.00;26.25;;;;;;;;5077756;28;45558;-70
2023/12/03 08:11:40;;;;;;;;;31.50;23.50;;;;;;;;5076663;28;45607;-72
2023/12/03 08:14:06;;;;;;;;;31.33;22.00;;;;;;;;5076054;28;45914;-74
2023/12/03 08:16:31;;;;;;;;;28.25;23.25;;;;;;;;5078127;28;45264;-68
2023/12/03 08:18:56;;;;;;;;;32.25;24.25;;;;;;;;5077940;28;45370;-68
2023/12/03 08:21:21;;;;;;;;;36.33;26.67;;;;;;;;5077122;28;45865;-73
2023/12/03 08:23:47;;;;;;;;;30.33;23.00;;;;;;;;5077112;28;45399;-70
2023/12/03 08:26:12;;;;;;;;;30.33;22.67;;;;;;;;5077336;28;45437;-70
2023/12/03 08:28:37;;;;;;;;;36.00;24.33;;;;;;;;5077771;28;45666;-69
2023/12/03 08:31:03;;;;;;;;;38.00;25.67;;;;;;;;5076961;28;46311;-70
2023/12/03 08:33:28;;;;;;;;;33.50;29.50;;;;;;;;5077286;28;45482;-70
2023/12/03 08:35:53;;;;;;;;;28.75;19.50;;;;;;;;5077042;28;45383;-68
2023/12/03 08:38:19;;;;;;;;;32.50;23.00;;;;;;;;5077281;28;45228;-70
2023/12/03 08:40:44;;;;;;;;;32.00;24.00;;;;;;;;5076890;28;46863;-69
2023/12/03 08:43:09;;;;;;;;;35.25;22.50;;;;;;;;5066001;28;45401;-71
2023/12/03 08:45:34;;;;;;;;;25.33;19.33;;;;;;;;5075863;28;45335;-71
2023/12/03 08:48:03;;;;;;;;;27.25;22.50;;;;;;;;5064222;28;45339;-70
2023/12/03 08:50:31;;;;;;;;;40.75;25.50;;;;;;;;5072265;28;45767;-73
2023/12/03 08:52:57;;;;;;;;;34.50;22.25;;;;;;;;5068025;28;45651;-72
2023/12/03 08:55:22;;;;;;;;;26.50;19.25;;;;;;;;5062280;28;45437;-73
2023/12/03 08:57:47;;;;;;;;;35.25;24.75;;;;;;;;5074403;28;45328;-70
2023/12/03 09:00:14;;;;;;;;;28.75;24.50;;;;;;;;5054841;28;47327;-71
2023/12/03 09:02:39;;;;;;;;;36.75;28.50;;;;;;;;5058696;28;45348;-71
2023/12/03 09:05:05;;;;;;;;;30.00;23.00;;;;;;;;5071211;28;45456;-73
2023/12/03 09:07:30;;;;;;;;;26.50;25.25;;;;;;;;5066241;28;45437;-73
2023/12/03 09:09:56;;;;;;;;;29.50;23.00;;;;;;;;5060338;28;45995;-73
2023/12/03 09:12:21;;;;;;;;;21.50;17.00;;;;;;;;5063761;28;45542;-74
2023/12/03 09:14:47;;;;;;;;;21.67;15.67;;;;;;;;5061014;28;45350;-73
2023/12/03 09:17:12;;;;;;;;;33.75;23.50;;;;;;;;5072958;28;45465;-70
2023/12/03 09:19:37;;;;;;;;;34.67;27.67;;;;;;;;5061348;28;45730;-69
2023/12/03 09:22:02;;;;;;;;;42.67;26.33;;;;;;;;5067379;28;45343;-69
2023/12/03 09:24:28;;;;;;;;;28.75;25.75;;;;;;;;5061530;28;45454;-69
2023/12/03 09:26:53;;;;;;;;;32.75;25.25;;;;;;;;5072391;28;45409;-72
2023/12/03 09:29:18;;;;;;;;;28.75;23.00;;;;;;;;5070100;28;45487;-71
2023/12/03 09:31:44;;;;;;;;;36.00;26.00;;;;;;;;5052141;27;45509;-70
2023/12/03 09:34:09;;;;;;;;;37.25;29.25;;;;;;;;5055820;28;45351;-70
2023/12/03 09:36:34;;;;;;;;;42.25;27.25;;;;;;;;5061961;28;45638;-71
2023/12/03 09:39:04;;;;;;;;;30.75;21.75;;;;;;;;5060272;28;46660;-70
2023/12/03 09:41:33;;;;;;;;;29.50;22.75;;;;;;;;5057892;27;45647;-70
2023/12/03 09:44:01;;;;;;;;;30.50;20.75;;;;;;;;5062351;28;45445;-70
2023/12/03 09:46:32;;;;;;;;;27.50;14.25;;;;;;;;5062803;28;45483;-72
2023/12/03 09:49:00;;;;;;;;;27.25;21.50;;;;;;;;5068751;28;45932;-71
2023/12/03 09:51:26;;;;;;;;;22.00;17.00;;;;;;;;5062257;28;45403;-71
2023/12/03 09:53:52;;;;;;;;;27.75;24.25;;;;;;;;5060525;28;45349;-70
2023/12/03 09:56:18;;;;;;;;;26.75;18.00;;;;;;;;5055182;28;45443;-71
2023/12/03 09:58:44;;;;;;;;;20.50;16.75;;;;;;;;5061121;28;46310;-70
2023/12/03 10:01:10;;;;;;;;;27.50;21.25;;;;;;;;5058299;28;45616;-71
2023/12/03 10:03:35;;;;;;;;;32.75;26.25;;;;;;;;5061123;28;45419;-69
2023/12/03 10:06:00;;;;;;;;;35.50;26.00;;;;;;;;5069366;28;45616;-70
2023/12/03 10:08:26;;;;;;;;;30.25;26.00;;;;;;;;5074481;28;45862;-70
2023/12/03 10:10:55;;;;;;;;;29.75;16.75;;;;;;;;5075112;28;45315;-72
2023/12/03 10:13:21;;;;;;;;;32.25;27.25;;;;;;;;5057488;28;45482;-71
2023/12/03 10:15:46;;;;;;;;;42.50;35.75;;;;;;;;5075650;28;45362;-70
2023/12/03 10:18:11;;;;;;;;;46.75;38.00;;;;;;;;5075862;28;45881;-70
2023/12/03 10:20:37;;;;;;;;;37.75;26.50;;;;;;;;5075500;28;45399;-70
2023/12/03 10:23:02;;;;;;;;;39.75;25.75;;;;;;;;5075445;28;45750;-71
2023/12/03 10:25:29;;;;;;;;;32.25;26.50;;;;;;;;5075058;28;45480;-70
2023/12/03 10:27:55;;;;;;;;;43.75;34.00;;;;;;;;5074232;28;46214;-70
2023/12/03 10:30:20;;;;;;;;;39.75;31.00;;;;;;;;5054930;28;45792;-71
2023/12/03 10:32:45;;;;;;;;;24.00;16.25;;;;;;;;5046992;28;45438;-70
2023/12/03 10:35:11;;;;;;;;;45.67;32.67;;;;;;;;5064710;27;45305;-69
2023/12/03 10:37:37;;;;;;;;;43.00;33.00;;;;;;;;5068761;28;45535;-70
2023/12/03 10:40:02;;;;;;;;;38.75;33.75;;;;;;;;5064411;28;45536;-70
2023/12/03 10:42:29;;;;;;;;;32.50;23.25;;;;;;;;5047291;28;45577;-71
2023/12/03 10:44:54;;;;;;;;;39.00;26.50;;;;;;;;5047717;28;46744;-70
2023/12/03 10:47:20;;;;;;;;;29.00;22.67;;;;;;;;5066984;28;46637;-70
2023/12/03 10:49:46;;;;;;;;;37.00;25.50;;;;;;;;5067435;28;46330;-72
2023/12/03 10:52:11;;;;;;;;;27.50;23.50;;;;;;;;5069138;28;45496;-70
2023/12/03 10:54:37;;;;;;;;;30.75;26.50;;;;;;;;5066472;28;45350;-72
2023/12/03 10:57:02;;;;;;;;;30.75;24.00;;;;;;;;5064729;28;45550;-70
2023/12/03 10:59:29;;;;;;;;;36.25;31.00;;;;;;;;5068297;28;45485;-71
2023/12/03 11:01:54;;;;;;;;;36.75;28.00;;;;;;;;5066394;28;45633;-71
2023/12/03 11:04:31;;;;;;;;;33.25;24.75;;;;;;;;5069719;28;45446;-70
2023/12/03 11:06:58;;;;;;;;;28.50;26.00;;;;;;;;5063287;28;45724;-70
2023/12/03 11:09:24;;;;;;;;;27.75;22.75;;;;;;;;5041835;28;45465;-70
2023/12/03 11:11:50;;;;;;;;;23.75;15.25;;;;;;;;5063212;28;45643;-70
2023/12/03 11:14:15;;;;;;;;;26.00;18.00;;;;;;;;5064587;28;45498;-72
2023/12/03 11:16:52;;;;;;;;;27.50;18.50;;;;;;;;5062493;28;46482;-71
2023/12/03 11:19:19;;;;;;;;;29.75;21.25;;;;;;;;5061301;28;45873;-70
2023/12/03 11:22:04;;;;;;;;;38.75;26.00;;;;;;;;5049476;28;45451;-70
2023/12/03 11:24:32;;;;;;;;;30.75;28.25;;;;;;;;5048670;28;45933;-70
2023/12/03 11:26:57;;;;;;;;;26.75;19.25;;;;;;;;5071576;27;45529;-71
2023/12/03 11:29:41;;;;;;;;;36.25;28.25;;;;;;;;5068247;27;45423;-71
2023/12/03 11:32:07;;;;;;;;;32.00;26.25;;;;;;;;5069718;28;45543;-70
2023/12/03 11:34:32;;;;;;;;;33.75;25.75;;;;;;;;5071441;28;45450;-70
2023/12/03 11:36:57;;;;;;;;;28.67;24.00;;;;;;;;5075490;28;46996;-70
2023/12/03 11:39:22;;;;;;;;;35.00;26.33;;;;;;;;5053578;28;45541;-71
2023/12/03 11:41:57;;;;;;;;;25.67;22.67;;;;;;;;5071976;27;45643;-71
2023/12/03 11:44:25;;;;;;;;;23.75;17.75;;;;;;;;5069079;28;45655;-72
2023/12/03 11:47:00;;;;;;;;;25.50;21.75;;;;;;;;5068813;28;46531;-70
2023/12/03 11:49:27;;;;;;;;;24.25;22.75;;;;;;;;5053568;28;46525;-72
2023/12/03 11:51:52;;;;;;;;;33.25;26.75;;;;;;;;5073344;28;45552;-71
2023/12/03 11:54:24;;;;;;;;;14.00;14.00;;;;;;;;5078111;28;45350;-70
2023/12/03 11:56:49;;;;;;;;;29.75;21.50;;;;;;;;5074974;27;47230;-70
2023/12/03 11:59:15;;;;;;;;;23.25;18.50;;;;;;;;5056012;28;45327;-69
2023/12/03 12:01:40;;;;;;;;;23.25;16.00;;;;;;;;5075296;27;45279;-70
2023/12/03 12:04:05;;;;;;;;;23.33;14.33;;;;;;;;5076015;28;45406;-70
2023/12/03 12:06:31;;;;;;;;;23.00;15.67;;;;;;;;5072734;28;45844;-71
2023/12/03 12:08:58;;;;;;;;;17.50;14.25;;;;;;;;5075433;28;45531;-70
2023/12/03 12:11:23;;;;;;;;;17.50;15.25;;;;;;;;5074250;28;45510;-69
2023/12/03 12:13:49;;;;;;;;;22.50;20.50;;;;;;;;5075457;28;45434;-70
2023/12/03 12:16:14;;;;;;;;;21.50;14.00;;;;;;;;5070919;28;46671;-70
2023/12/03 12:18:40;;;;;;;;;23.75;16.25;;;;;;;;5072160;28;45753;-71
2023/12/03 12:21:06;;;;;;;;;32.00;20.00;;;;;;;;5067796;28;45491;-70
2023/12/03 12:23:32;;;;;;;;;24.00;20.50;;;;;;;;5074763;28;45284;-70
2023/12/03 12:25:57;;;;;;;;;25.67;21.33;;;;;;;;5072536;28;45504;-71
2023/12/03 12:28:22;;;;;;;;;18.75;15.00;;;;;;;;5075998;28;45444;-70
2023/12/03 12:30:47;;;;;;;;;26.75;22.75;;;;;;;;5072254;27;46870;-70
2023/12/03 12:33:13;;;;;;;;;34.25;18.75;;;;;;;;5074302;28;45908;-70
2023/12/03 12:35:38;;;;;;;;;10.00;8.50;;;;;;;;5069978;28;45533;-71
2023/12/03 12:38:04;;;;;;;;;18.25;16.75;;;;;;;;5073900;28;45431;-71
2023/12/03 12:40:37;;;;;;;;;31.75;24.75;;;;;;;;5073293;28;45341;-70
2023/12/03 12:43:10;;;;;;;;;17.75;16.00;;;;;;;;5071945;28;45489;-70
2023/12/03 12:45:38;;;;;;;;;14.25;11.50;;;;;;;;5072118;28;45827;-70
2023/12/03 12:48:03;;;;;;;;;14.50;14.50;;;;;;;;5069349;28;45569;-70
2023/12/03 12:50:35;;;;;;;;;19.00;15.50;;;;;;;;5054493;28;45421;-70
2023/12/03 12:53:01;;;;;;;;;19.25;13.50;;;;;;;;5073092;28;45632;-70
2023/12/03 12:55:27;;;;;;;;;22.00;18.00;;;;;;;;5071917;27;45945;-70
2023/12/03 12:57:52;;;;;;;;;14.50;10.50;;;;;;;;5075846;28;45524;-71
2023/12/03 13:00:17;;;;;;;;;19.33;14.00;;;;;;;;5071025;28;45587;-70
2023/12/03 13:02:43;;;;;;;;;16.50;14.25;;;;;;;;5074088;28;45553;-71
2023/12/03 13:05:08;;;;;;;;;20.75;17.75;;;;;;;;5073359;28;46536;-70
2023/12/03 13:07:35;;;;;;;;;16.00;13.25;;;;;;;;5075827;28;45335;-70
2023/12/03 13:10:00;;;;;;;;;15.25;14.75;;;;;;;;5075537;28;45459;-70
2023/12/03 13:12:25;;;;;;;;;19.75;15.25;;;;;;;;5076487;28;45342;-70
2023/12/03 13:14:51;;;;;;;;;15.75;15.50;;;;;;;;5076023;28;45488;-70
2023/12/03 13:17:16;;;;;;;;;23.00;19.33;;;;;;;;5075612;28;45469;-70
2023/12/03 13:19:41;;;;;;;;;24.00;21.00;;;;;;;;5074474;28;45431;-71
2023/12/03 13:22:06;;;;;;;;;20.75;15.25;;;;;;;;5076017;28;45849;-71
2023/12/03 13:24:31;;;;;;;;;16.00;16.00;;;;;;;;5075864;28;45526;-70
2023/12/03 13:26:57;;;;;;;;;16.50;14.25;;;;;;;;5074929;28;45421;-70
2023/12/03 13:29:22;;;;;;;;;13.50;10.25;;;;;;;;5076235;28;45216;-71
2023/12/03 13:31:47;;;;;;;;;14.25;10.75;;;;;;;;5075730;28;45448;-69
2023/12/03 13:34:13;;;;;;;;;16.00;14.00;;;;;;;;5075876;28;46312;-70
2023/12/03 13:36:38;;;;;;;;;16.25;14.25;;;;;;;;5075712;28;45350;-70
2023/12/03 13:39:03;;;;;;;;;19.00;15.33;;;;;;;;5075893;28;45414;-70
2023/12/03 13:41:29;;;;;;;;;15.00;11.33;;;;;;;;5075508;28;45343;-69
2023/12/03 13:43:54;;;;;;;;;19.00;17.25;;;;;;;;5068237;28;45752;-69
2023/12/03 13:46:19;;;;;;;;;15.50;8.25;;;;;;;;5075740;28;45476;-69
2023/12/03 13:48:45;;;;;;;;;19.67;17.00;;;;;;;;5075428;28;45450;-70
2023/12/03 13:51:10;;;;;;;;;17.50;15.00;;;;;;;;5075328;28;45621;-70
2023/12/03 13:53:35;;;;;;;;;20.75;17.50;;;;;;;;5074362;28;48013;-69
2023/12/03 13:56:02;;;;;;;;;20.50;15.00;;;;;;;;5075589;28;45327;-69
2023/12/03 13:58:27;;;;;;;;;18.25;14.75;;;;;;;;5076056;28;45384;-69
2023/12/03 14:00:52;;;;;;;;;14.00;14.00;;;;;;;;5075350;28;45395;-69
2023/12/03 14:03:18;;;;;;;;;16.00;15.00;;;;;;;;5057244;28;47720;-70
2023/12/03 14:05:44;;;;;;;;;15.00;9.25;;;;;;;;5057274;28;46388;-69
2023/12/03 14:08:09;;;;;;;;;19.33;17.33;;;;;;;;5075443;28;45577;-70